sensor_id;sensor_type;location;lat;lon;timestamp;temperature;humidity
10848;DHT22;5477;48.806;9.154;2022-12-18T00:02:05;-7.90;99.90
10848;DHT22;5477;48.806;9.154;2022-12-18T00:04:33;-7.90;99.90
10848;DHT22;5477;48.806;9.154;2022-12-18T00:07:01;-7.80;99.90
10848;DHT22;5477;48.806;9.154;2022-12-18T00:09:29;-7.90;99.90
10848;DHT22;5477;48.806;9.154;2022-12-18T00:12:06;-7.90;99.90
10848;DHT22;5477;48.806;9.154;2022-12-18T00:14:44;-8.00;99.90
10848;DHT22;5477;48.806;9.154;2022-12-18T00:17:13;-8.00;99.90
10848;DHT22;5477;48.806;9.154;2022-12-18T00:19:41;-8.00;99.90
10848;DHT22;5477;48.806;9.154;2022-12-18T00:22:09;-8.00;99.90
10848;DHT22;5477;48.806;9.154;2022-12-18T00:24:37;-8.00;99.90
10848;DHT22;5477;48.806;9.154;2022-12-18T00:27:05;-8.10;99.90
10848;DHT22;5477;48.806;9.154;2022-12-18T00:29:33;-8.20;99.90
10848;DHT22;5477;48.806;9.154;2022-12-18T00:32:01;-8.20;99.90
10848;DHT22;5477;48.806;9.154;2022-12-18T00:34:30;-8.20;99.90
10848;DHT22;5477;48.806;9.154;2022-12-18T00:36:58;-8.20;99.90
10848;DHT22;5477;48.806;9.154;2022-12-18T00:39:26;-8.20;99.90
10848;DHT22;5477;48.806;9.154;2022-12-18T00:41:54;-8.20;99.90
10848;DHT22;5477;48.806;9.154;2022-12-18T00:44:39;-8.20;99.90
10848;DHT22;5477;48.806;9.154;2022-12-18T00:47:07;-8.20;99.90
10848;DHT22;5477;48.806;9.154;2022-12-18T00:49:36;-8.20;99.90
10848;DHT22;5477;48.806;9.154;2022-12-18T00:52:04;-8.20;99.90
10848;DHT22;5477;48.806;9.154;2022-12-18T00:54:32;-8.20;99.90
10848;DHT22;5477;48.806;9.154;2022-12-18T00:57:00;-8.10;99.90
10848;DHT22;5477;48.806;9.154;2022-12-18T00:59:29;-8.20;99.90
10848;DHT22;5477;48.806;9.154;2022-12-18T01:01:57;-8.30;99.90
10848;DHT22;5477;48.806;9.154;2022-12-18T01:04:26;-8.30;99.90
10848;DHT22;5477;48.806;9.154;2022-12-18T01:06:56;-8.30;99.90
10848;DHT22;5477;48.806;9.154;2022-12-18T01:09:24;-8.30;99.90
10848;DHT22;5477;48.806;9.154;2022-12-18T01:11:52;-8.40;99.90
10848;DHT22;5477;48.806;9.154;2022-12-18T01:14:20;-8.40;99.90
10848;DHT22;5477;48.806;9.154;2022-12-18T01:16:48;-8.40;99.90
10848;DHT22;5477;48.806;9.154;2022-12-18T01:19:16;-8.50;99.90
10848;DHT22;5477;48.806;9.154;2022-12-18T01:21:46;-8.40;99.90
10848;DHT22;5477;48.806;9.154;2022-12-18T01:24:15;-8.40;99.90
10848;DHT22;5477;48.806;9.154;2022-12-18T01:26:43;-8.40;99.90
10848;DHT22;5477;48.806;9.154;2022-12-18T01:29:13;-8.40;99.90
10848;DHT22;5477;48.806;9.154;2022-12-18T01:31:41;-8.30;99.90
10848;DHT22;5477;48.806;9.154;2022-12-18T01:34:09;-8.30;99.90
10848;DHT22;5477;48.806;9.154;2022-12-18T01:36:39;-8.20;99.90
10848;DHT22;5477;48.806;9.154;2022-12-18T01:39:10;-8.10;99.90
10848;DHT22;5477;48.806;9.154;2022-12-18T01:41:42;-8.10;99.90
10848;DHT22;5477;48.806;9.154;2022-12-18T01:44:51;-8.10;99.90
10848;DHT22;5477;48.806;9.154;2022-12-18T01:47:24;-8.10;99.90
10848;DHT22;5477;48.806;9.154;2022-12-18T01:49:55;-8.10;99.90
10848;DHT22;5477;48.806;9.154;2022-12-18T01:52:24;-8.10;99.90
10848;DHT22;5477;48.806;9.154;2022-12-18T01:54:54;-8.20;99.90
10848;DHT22;5477;48.806;9.154;2022-12-18T01:57:27;-8.20;99.90
10848;DHT22;5477;48.806;9.154;2022-12-18T02:02:46;-8.10;99.90
10848;DHT22;5477;48.806;9.154;2022-12-18T02:05:17;-8.10;99.90
10848;DHT22;5477;48.806;9.154;2022-12-18T02:07:53;-8.00;99.90
10848;DHT22;5477;48.806;9.154;2022-12-18T02:10:27;-7.90;99.90
10848;DHT22;5477;48.806;9.154;2022-12-18T02:13:06;-7.90;99.90
10848;DHT22;5477;48.806;9.154;2022-12-18T02:15:41;-7.90;99.90
10848;DHT22;5477;48.806;9.154;2022-12-18T02:18:14;-7.70;99.90
10848;DHT22;5477;48.806;9.154;2022-12-18T02:20:49;-7.50;99.90
10848;DHT22;5477;48.806;9.154;2022-12-18T02:23:36;-7.30;99.90
10848;DHT22;5477;48.806;9.154;2022-12-18T02:26:15;-7.20;99.90
10848;DHT22;5477;48.806;9.154;2022-12-18T02:28:53;-7.10;99.90
10848;DHT22;5477;48.806;9.154;2022-12-18T02:31:26;-7.30;99.90
10848;DHT22;5477;48.806;9.154;2022-12-18T02:33:57;-7.30;99.90
10848;DHT22;5477;48.806;9.154;2022-12-18T02:36:28;-7.40;99.90
10848;DHT22;5477;48.806;9.154;2022-12-18T02:38:56;-7.50;99.90
10848;DHT22;5477;48.806;9.154;2022-12-18T02:41:28;-7.50;99.90
10848;DHT22;5477;48.806;9.154;2022-12-18T02:43:59;-7.50;99.90
10848;DHT22;5477;48.806;9.154;2022-12-18T02:46:33;-7.50;99.90
10848;DHT22;5477;48.806;9.154;2022-12-18T02:49:19;-7.60;99.90
10848;DHT22;5477;48.806;9.154;2022-12-18T02:51:53;-7.60;99.90
10848;DHT22;5477;48.806;9.154;2022-12-18T02:54:52;-7.70;99.90
10848;DHT22;5477;48.806;9.154;2022-12-18T02:57:33;-7.70;99.90
10848;DHT22;5477;48.806;9.154;2022-12-18T03:00:07;-7.70;99.90
10848;DHT22;5477;48.806;9.154;2022-12-18T03:02:41;-7.70;99.90
10848;DHT22;5477;48.806;9.154;2022-12-18T03:05:16;-7.60;99.90
10848;DHT22;5477;48.806;9.154;2022-12-18T03:07:49;-7.50;99.90
10848;DHT22;5477;48.806;9.154;2022-12-18T03:10:23;-7.30;99.90
10848;DHT22;5477;48.806;9.154;2022-12-18T03:12:59;-7.30;99.90
10848;DHT22;5477;48.806;9.154;2022-12-18T03:15:30;-7.10;99.90
10848;DHT22;5477;48.806;9.154;2022-12-18T03:18:08;-7.00;99.90
10848;DHT22;5477;48.806;9.154;2022-12-18T03:20:40;-6.90;99.90
10848;DHT22;5477;48.806;9.154;2022-12-18T03:23:10;-6.80;99.90
10848;DHT22;5477;48.806;9.154;2022-12-18T03:25:42;-6.80;99.90
10848;DHT22;5477;48.806;9.154;2022-12-18T03:28:14;-6.80;99.90
10848;DHT22;5477;48.806;9.154;2022-12-18T03:30:45;-6.90;99.90
10848;DHT22;5477;48.806;9.154;2022-12-18T03:33:18;-7.10;99.90
10848;DHT22;5477;48.806;9.154;2022-12-18T03:35:49;-7.30;99.90
10848;DHT22;5477;48.806;9.154;2022-12-18T03:38:18;-7.40;99.90
10848;DHT22;5477;48.806;9.154;2022-12-18T03:40:56;-7.50;99.90
10848;DHT22;5477;48.806;9.154;2022-12-18T03:43:35;-7.50;99.90
10848;DHT22;5477;48.806;9.154;2022-12-18T03:46:14;-7.50;99.90
10848;DHT22;5477;48.806;9.154;2022-12-18T03:48:44;-7.60;99.90
10848;DHT22;5477;48.806;9.154;2022-12-18T03:51:22;-7.70;99.90
10848;DHT22;5477;48.806;9.154;2022-12-18T03:53:57;-7.70;99.90
10848;DHT22;5477;48.806;9.154;2022-12-18T03:56:33;-7.70;99.90
10848;DHT22;5477;48.806;9.154;2022-12-18T03:59:06;-7.60;99.90
10848;DHT22;5477;48.806;9.154;2022-12-18T04:01:39;-7.40;99.90
10848;DHT22;5477;48.806;9.154;2022-12-18T04:04:12;-7.30;99.90
10848;DHT22;5477;48.806;9.154;2022-12-18T04:06:43;-7.50;99.90
10848;DHT22;5477;48.806;9.154;2022-12-18T04:09:14;-7.50;99.90
10848;DHT22;5477;48.806;9.154;2022-12-18T04:11:46;-7.50;99.90
10848;DHT22;5477;48.806;9.154;2022-12-18T04:14:17;-7.40;99.90
10848;DHT22;5477;48.806;9.154;2022-12-18T04:16:49;-7.30;99.90
10848;DHT22;5477;48.806;9.154;2022-12-18T04:19:21;-7.10;99.90
10848;DHT22;5477;48.806;9.154;2022-12-18T04:21:51;-7.10;99.90
10848;DHT22;5477;48.806;9.154;2022-12-18T04:24:19;-7.10;99.90
10848;DHT22;5477;48.806;9.154;2022-12-18T04:27:01;-7.10;99.90
10848;DHT22;5477;48.806;9.154;2022-12-18T04:29:34;-7.00;99.90
10848;DHT22;5477;48.806;9.154;2022-12-18T04:32:02;-6.90;99.90
10848;DHT22;5477;48.806;9.154;2022-12-18T04:34:32;-6.80;99.90
10848;DHT22;5477;48.806;9.154;2022-12-18T04:37:00;-6.70;99.90
10848;DHT22;5477;48.806;9.154;2022-12-18T04:39:28;-6.60;99.90
10848;DHT22;5477;48.806;9.154;2022-12-18T04:42:02;-6.60;99.90
10848;DHT22;5477;48.806;9.154;2022-12-18T04:44:30;-6.70;99.90
10848;DHT22;5477;48.806;9.154;2022-12-18T04:46:59;-6.80;99.90
10848;DHT22;5477;48.806;9.154;2022-12-18T04:49:27;-7.00;99.90
10848;DHT22;5477;48.806;9.154;2022-12-18T04:51:55;-7.00;99.90
10848;DHT22;5477;48.806;9.154;2022-12-18T04:54:23;-7.10;99.90
10848;DHT22;5477;48.806;9.154;2022-12-18T04:56:51;-7.20;99.90
10848;DHT22;5477;48.806;9.154;2022-12-18T04:59:19;-7.30;99.90
10848;DHT22;5477;48.806;9.154;2022-12-18T05:01:47;-7.30;99.90
10848;DHT22;5477;48.806;9.154;2022-12-18T05:04:17;-7.30;99.90
10848;DHT22;5477;48.806;9.154;2022-12-18T05:06:45;-7.30;99.90
10848;DHT22;5477;48.806;9.154;2022-12-18T05:09:14;-7.30;99.90
10848;DHT22;5477;48.806;9.154;2022-12-18T05:11:42;-7.30;99.90
10848;DHT22;5477;48.806;9.154;2022-12-18T05:14:12;-7.20;99.90
10848;DHT22;5477;48.806;9.154;2022-12-18T05:16:40;-7.20;99.90
10848;DHT22;5477;48.806;9.154;2022-12-18T05:19:07;-7.20;99.90
10848;DHT22;5477;48.806;9.154;2022-12-18T05:21:38;-7.30;99.90
10848;DHT22;5477;48.806;9.154;2022-12-18T05:24:06;-7.20;99.90
10848;DHT22;5477;48.806;9.154;2022-12-18T05:26:34;-7.20;99.90
10848;DHT22;5477;48.806;9.154;2022-12-18T05:29:02;-7.20;99.90
10848;DHT22;5477;48.806;9.154;2022-12-18T05:31:30;-7.20;99.90
10848;DHT22;5477;48.806;9.154;2022-12-18T05:34:05;-7.20;99.90
10848;DHT22;5477;48.806;9.154;2022-12-18T05:36:33;-7.30;99.90
10848;DHT22;5477;48.806;9.154;2022-12-18T05:39:03;-7.40;99.90
10848;DHT22;5477;48.806;9.154;2022-12-18T05:41:31;-7.40;99.90
10848;DHT22;5477;48.806;9.154;2022-12-18T05:44:00;-7.50;99.90
10848;DHT22;5477;48.806;9.154;2022-12-18T05:46:28;-7.50;99.90
10848;DHT22;5477;48.806;9.154;2022-12-18T05:48:59;-7.50;99.90
10848;DHT22;5477;48.806;9.154;2022-12-18T05:51:27;-7.50;99.90
10848;DHT22;5477;48.806;9.154;2022-12-18T05:53:55;-7.50;99.90
10848;DHT22;5477;48.806;9.154;2022-12-18T05:56:24;-7.50;99.90
10848;DHT22;5477;48.806;9.154;2022-12-18T05:58:53;-7.50;99.90
10848;DHT22;5477;48.806;9.154;2022-12-18T06:01:24;-7.50;99.90
10848;DHT22;5477;48.806;9.154;2022-12-18T06:03:53;-7.60;99.90
10848;DHT22;5477;48.806;9.154;2022-12-18T06:06:22;-7.60;99.90
10848;DHT22;5477;48.806;9.154;2022-12-18T06:08:50;-7.60;99.90
10848;DHT22;5477;48.806;9.154;2022-12-18T06:11:20;-7.70;99.90
10848;DHT22;5477;48.806;9.154;2022-12-18T06:13:51;-7.70;99.90
10848;DHT22;5477;48.806;9.154;2022-12-18T06:16:25;-7.70;99.90
10848;DHT22;5477;48.806;9.154;2022-12-18T06:18:55;-7.80;99.90
10848;DHT22;5477;48.806;9.154;2022-12-18T06:21:23;-7.80;99.90
10848;DHT22;5477;48.806;9.154;2022-12-18T06:23:51;-7.80;99.90
10848;DHT22;5477;48.806;9.154;2022-12-18T06:26:19;-7.90;99.90
10848;DHT22;5477;48.806;9.154;2022-12-18T06:28:55;-7.90;99.90
10848;DHT22;5477;48.806;9.154;2022-12-18T06:31:24;-7.80;99.90
10848;DHT22;5477;48.806;9.154;2022-12-18T06:33:52;-7.90;99.90
10848;DHT22;5477;48.806;9.154;2022-12-18T06:36:20;-8.00;99.90
10848;DHT22;5477;48.806;9.154;2022-12-18T06:38:48;-8.00;99.90
10848;DHT22;5477;48.806;9.154;2022-12-18T06:41:18;-8.10;99.90
10848;DHT22;5477;48.806;9.154;2022-12-18T06:43:46;-8.10;99.90
10848;DHT22;5477;48.806;9.154;2022-12-18T06:46:15;-8.10;99.90
10848;DHT22;5477;48.806;9.154;2022-12-18T06:48:47;-8.20;99.90
10848;DHT22;5477;48.806;9.154;2022-12-18T06:51:19;-8.20;99.90
10848;DHT22;5477;48.806;9.154;2022-12-18T06:53:47;-8.20;99.90
10848;DHT22;5477;48.806;9.154;2022-12-18T06:56:15;-8.30;99.90
10848;DHT22;5477;48.806;9.154;2022-12-18T06:58:43;-8.30;99.90
10848;DHT22;5477;48.806;9.154;2022-12-18T07:01:12;-8.30;99.90
10848;DHT22;5477;48.806;9.154;2022-12-18T07:03:42;-8.40;99.90
10848;DHT22;5477;48.806;9.154;2022-12-18T07:06:15;-8.40;99.90
10848;DHT22;5477;48.806;9.154;2022-12-18T07:08:44;-8.40;99.90
10848;DHT22;5477;48.806;9.154;2022-12-18T07:11:12;-8.40;99.90
10848;DHT22;5477;48.806;9.154;2022-12-18T07:13:40;-8.40;99.90
10848;DHT22;5477;48.806;9.154;2022-12-18T07:16:11;-8.40;99.90
10848;DHT22;5477;48.806;9.154;2022-12-18T07:18:48;-8.30;99.90
10848;DHT22;5477;48.806;9.154;2022-12-18T07:21:18;-8.30;99.90
10848;DHT22;5477;48.806;9.154;2022-12-18T07:23:46;-8.30;99.90
10848;DHT22;5477;48.806;9.154;2022-12-18T07:26:17;-8.10;99.90
10848;DHT22;5477;48.806;9.154;2022-12-18T07:28:46;-8.00;99.90
10848;DHT22;5477;48.806;9.154;2022-12-18T07:31:16;-8.00;99.90
10848;DHT22;5477;48.806;9.154;2022-12-18T07:33:45;-8.10;99.90
10848;DHT22;5477;48.806;9.154;2022-12-18T07:36:15;-8.10;99.90
10848;DHT22;5477;48.806;9.154;2022-12-18T07:38:43;-8.10;99.90
10848;DHT22;5477;48.806;9.154;2022-12-18T07:41:12;-8.10;99.90
10848;DHT22;5477;48.806;9.154;2022-12-18T07:43:41;-8.10;99.90
10848;DHT22;5477;48.806;9.154;2022-12-18T07:46:11;-8.00;99.90
10848;DHT22;5477;48.806;9.154;2022-12-18T07:48:40;-8.00;99.90
10848;DHT22;5477;48.806;9.154;2022-12-18T07:51:09;-8.00;99.90
10848;DHT22;5477;48.806;9.154;2022-12-18T07:53:42;-8.00;99.90
10848;DHT22;5477;48.806;9.154;2022-12-18T07:56:11;-7.90;99.90
10848;DHT22;5477;48.806;9.154;2022-12-18T07:58:57;-7.80;99.90
10848;DHT22;5477;48.806;9.154;2022-12-18T08:01:26;-7.80;99.90
10848;DHT22;5477;48.806;9.154;2022-12-18T08:03:54;-7.90;99.90
10848;DHT22;5477;48.806;9.154;2022-12-18T08:06:22;-7.80;99.90
10848;DHT22;5477;48.806;9.154;2022-12-18T08:08:52;-7.80;99.90
10848;DHT22;5477;48.806;9.154;2022-12-18T08:11:21;-7.70;99.90
10848;DHT22;5477;48.806;9.154;2022-12-18T08:13:50;-7.60;99.90
10848;DHT22;5477;48.806;9.154;2022-12-18T08:16:18;-7.50;99.90
10848;DHT22;5477;48.806;9.154;2022-12-18T08:18:47;-7.40;99.90
10848;DHT22;5477;48.806;9.154;2022-12-18T08:21:18;-7.40;99.90
10848;DHT22;5477;48.806;9.154;2022-12-18T08:23:48;-7.20;99.90
10848;DHT22;5477;48.806;9.154;2022-12-18T08:26:19;-7.20;99.90
10848;DHT22;5477;48.806;9.154;2022-12-18T08:28:47;-7.20;99.90
10848;DHT22;5477;48.806;9.154;2022-12-18T08:31:16;-7.10;99.90
10848;DHT22;5477;48.806;9.154;2022-12-18T08:33:44;-7.00;99.90
10848;DHT22;5477;48.806;9.154;2022-12-18T08:36:12;-6.90;99.90
10848;DHT22;5477;48.806;9.154;2022-12-18T08:38:40;-6.60;99.90
10848;DHT22;5477;48.806;9.154;2022-12-18T08:41:10;-6.50;99.90
10848;DHT22;5477;48.806;9.154;2022-12-18T08:43:40;-6.30;99.90
10848;DHT22;5477;48.806;9.154;2022-12-18T08:46:27;-6.20;99.90
10848;DHT22;5477;48.806;9.154;2022-12-18T08:48:55;-6.00;99.90
10848;DHT22;5477;48.806;9.154;2022-12-18T08:51:23;-5.90;99.90
10848;DHT22;5477;48.806;9.154;2022-12-18T08:53:51;-5.70;99.90
10848;DHT22;5477;48.806;9.154;2022-12-18T08:56:19;-5.50;99.90
10848;DHT22;5477;48.806;9.154;2022-12-18T08:58:51;-5.40;99.90
10848;DHT22;5477;48.806;9.154;2022-12-18T09:01:20;-5.20;99.90
10848;DHT22;5477;48.806;9.154;2022-12-18T09:03:48;-5.10;99.90
10848;DHT22;5477;48.806;9.154;2022-12-18T09:06:17;-5.00;99.90
10848;DHT22;5477;48.806;9.154;2022-12-18T09:08:45;-5.00;99.90
10848;DHT22;5477;48.806;9.154;2022-12-18T09:11:15;-5.00;99.90
10848;DHT22;5477;48.806;9.154;2022-12-18T09:13:47;-5.00;99.90
10848;DHT22;5477;48.806;9.154;2022-12-18T09:16:16;-4.90;99.90
10848;DHT22;5477;48.806;9.154;2022-12-18T09:18:44;-4.90;99.90
10848;DHT22;5477;48.806;9.154;2022-12-18T09:21:14;-4.80;99.90
10848;DHT22;5477;48.806;9.154;2022-12-18T09:23:43;-4.80;99.90
10848;DHT22;5477;48.806;9.154;2022-12-18T09:26:11;-4.80;99.90
10848;DHT22;5477;48.806;9.154;2022-12-18T09:28:39;-4.80;99.90
10848;DHT22;5477;48.806;9.154;2022-12-18T09:31:14;-4.60;99.90
10848;DHT22;5477;48.806;9.154;2022-12-18T09:33:42;-4.60;99.90
10848;DHT22;5477;48.806;9.154;2022-12-18T09:36:13;-4.60;99.90
10848;DHT22;5477;48.806;9.154;2022-12-18T09:38:41;-4.50;99.90
10848;DHT22;5477;48.806;9.154;2022-12-18T09:41:21;-4.50;99.90
10848;DHT22;5477;48.806;9.154;2022-12-18T09:43:54;-4.40;99.90
10848;DHT22;5477;48.806;9.154;2022-12-18T09:46:28;-4.50;99.90
10848;DHT22;5477;48.806;9.154;2022-12-18T09:49:02;-4.40;99.90
10848;DHT22;5477;48.806;9.154;2022-12-18T09:51:35;-4.40;99.90
10848;DHT22;5477;48.806;9.154;2022-12-18T09:54:07;-4.30;99.90
10848;DHT22;5477;48.806;9.154;2022-12-18T09:56:41;-4.20;99.90
10848;DHT22;5477;48.806;9.154;2022-12-18T09:59:18;-4.10;99.90
10848;DHT22;5477;48.806;9.154;2022-12-18T10:01:49;-3.90;99.90
10848;DHT22;5477;48.806;9.154;2022-12-18T10:04:18;-3.90;99.90
10848;DHT22;5477;48.806;9.154;2022-12-18T10:06:50;-3.70;99.90
10848;DHT22;5477;48.806;9.154;2022-12-18T10:09:27;-3.60;99.90
10848;DHT22;5477;48.806;9.154;2022-12-18T10:12:02;-3.40;99.90
10848;DHT22;5477;48.806;9.154;2022-12-18T10:14:36;-3.10;99.90
10848;DHT22;5477;48.806;9.154;2022-12-18T10:17:17;-2.90;99.90
10848;DHT22;5477;48.806;9.154;2022-12-18T10:19:51;-2.60;99.90
10848;DHT22;5477;48.806;9.154;2022-12-18T10:22:39;-2.60;99.90
10848;DHT22;5477;48.806;9.154;2022-12-18T10:25:17;-2.50;99.90
10848;DHT22;5477;48.806;9.154;2022-12-18T10:27:47;-2.30;99.90
10848;DHT22;5477;48.806;9.154;2022-12-18T10:30:16;-2.20;99.90
10848;DHT22;5477;48.806;9.154;2022-12-18T10:32:46;-2.00;99.90
10848;DHT22;5477;48.806;9.154;2022-12-18T10:35:18;-1.90;99.90
10848;DHT22;5477;48.806;9.154;2022-12-18T10:38:04;-1.70;99.90
10848;DHT22;5477;48.806;9.154;2022-12-18T10:40:32;-1.30;99.90
10848;DHT22;5477;48.806;9.154;2022-12-18T10:43:05;-0.80;99.90
10848;DHT22;5477;48.806;9.154;2022-12-18T10:45:34;-0.30;99.90
10848;DHT22;5477;48.806;9.154;2022-12-18T10:48:03;0.10;99.90
10848;DHT22;5477;48.806;9.154;2022-12-18T10:50:36;0.50;99.90
10848;DHT22;5477;48.806;9.154;2022-12-18T10:53:27;0.90;99.90
10848;DHT22;5477;48.806;9.154;2022-12-18T10:56:00;1.10;99.90
10848;DHT22;5477;48.806;9.154;2022-12-18T10:58:31;1.40;99.90
10848;DHT22;5477;48.806;9.154;2022-12-18T11:01:08;1.50;99.90
10848;DHT22;5477;48.806;9.154;2022-12-18T11:03:39;1.60;99.90
10848;DHT22;5477;48.806;9.154;2022-12-18T11:06:09;1.50;99.90
10848;DHT22;5477;48.806;9.154;2022-12-18T11:08:39;1.30;99.90
10848;DHT22;5477;48.806;9.154;2022-12-18T11:11:18;1.40;99.90
10848;DHT22;5477;48.806;9.154;2022-12-18T11:13:55;1.50;99.90
10848;DHT22;5477;48.806;9.154;2022-12-18T11:16:26;1.60;99.90
10848;DHT22;5477;48.806;9.154;2022-12-18T11:19:10;1.70;99.90
10848;DHT22;5477;48.806;9.154;2022-12-18T11:21:41;1.70;99.90
10848;DHT22;5477;48.806;9.154;2022-12-18T11:24:21;1.80;99.90
10848;DHT22;5477;48.806;9.154;2022-12-18T11:26:50;1.90;99.90
10848;DHT22;5477;48.806;9.154;2022-12-18T11:29:31;2.20;99.90
10848;DHT22;5477;48.806;9.154;2022-12-18T11:32:21;2.50;99.90
10848;DHT22;5477;48.806;9.154;2022-12-18T11:34:59;2.60;99.90
10848;DHT22;5477;48.806;9.154;2022-12-18T11:37:29;2.80;99.90
10848;DHT22;5477;48.806;9.154;2022-12-18T11:40:01;2.40;99.90
10848;DHT22;5477;48.806;9.154;2022-12-18T11:42:37;2.20;99.90
10848;DHT22;5477;48.806;9.154;2022-12-18T11:45:25;1.90;99.90
10848;DHT22;5477;48.806;9.154;2022-12-18T11:47:57;1.50;99.90
10848;DHT22;5477;48.806;9.154;2022-12-18T11:50:32;1.30;99.90
10848;DHT22;5477;48.806;9.154;2022-12-18T11:53:01;1.20;99.90
10848;DHT22;5477;48.806;9.154;2022-12-18T11:55:39;1.00;99.90
10848;DHT22;5477;48.806;9.154;2022-12-18T11:58:15;0.90;99.90
10848;DHT22;5477;48.806;9.154;2022-12-18T12:00:51;0.80;99.90
10848;DHT22;5477;48.806;9.154;2022-12-18T12:03:39;0.60;99.90
10848;DHT22;5477;48.806;9.154;2022-12-18T12:06:17;0.30;99.90
10848;DHT22;5477;48.806;9.154;2022-12-18T12:08:58;0.20;99.90
10848;DHT22;5477;48.806;9.154;2022-12-18T12:11:35;0.10;99.90
10848;DHT22;5477;48.806;9.154;2022-12-18T12:14:16;0.10;99.90
10848;DHT22;5477;48.806;9.154;2022-12-18T12:16:52;0.10;99.90
10848;DHT22;5477;48.806;9.154;2022-12-18T12:19:34;-0.10;99.90
10848;DHT22;5477;48.806;9.154;2022-12-18T12:22:09;-0.10;99.90
10848;DHT22;5477;48.806;9.154;2022-12-18T12:24:49;-0.20;99.90
10848;DHT22;5477;48.806;9.154;2022-12-18T12:27:23;-0.20;99.90
10848;DHT22;5477;48.806;9.154;2022-12-18T12:30:00;-0.20;99.90
10848;DHT22;5477;48.806;9.154;2022-12-18T12:32:40;-0.10;99.90
10848;DHT22;5477;48.806;9.154;2022-12-18T12:35:25;-0.10;99.90
10848;DHT22;5477;48.806;9.154;2022-12-18T12:38:05;-0.10;99.90
10848;DHT22;5477;48.806;9.154;2022-12-18T12:40:36;-0.10;99.90
10848;DHT22;5477;48.806;9.154;2022-12-18T12:43:31;-0.10;99.90
10848;DHT22;5477;48.806;9.154;2022-12-18T12:46:04;0.00;99.90
10848;DHT22;5477;48.806;9.154;2022-12-18T12:48:38;0.00;99.90
10848;DHT22;5477;48.806;9.154;2022-12-18T12:51:13;0.00;99.90
10848;DHT22;5477;48.806;9.154;2022-12-18T12:53:46;0.00;99.90
10848;DHT22;5477;48.806;9.154;2022-12-18T12:56:16;0.00;99.90
10848;DHT22;5477;48.806;9.154;2022-12-18T12:58:55;0.00;99.90
10848;DHT22;5477;48.806;9.154;2022-12-18T13:01:32;0.10;99.90
10848;DHT22;5477;48.806;9.154;2022-12-18T13:04:12;0.30;99.90
10848;DHT22;5477;48.806;9.154;2022-12-18T13:06:48;0.50;99.90
10848;DHT22;5477;48.806;9.154;2022-12-18T13:09:21;0.40;99.90
10848;DHT22;5477;48.806;9.154;2022-12-18T13:11:49;0.30;99.90
10848;DHT22;5477;48.806;9.154;2022-12-18T13:14:36;0.30;99.90
10848;DHT22;5477;48.806;9.154;2022-12-18T13:17:27;0.30;99.90
10848;DHT22;5477;48.806;9.154;2022-12-18T13:20:08;0.20;99.90
10848;DHT22;5477;48.806;9.154;2022-12-18T13:22:40;0.20;99.90
10848;DHT22;5477;48.806;9.154;2022-12-18T13:25:31;0.20;99.90
10848;DHT22;5477;48.806;9.154;2022-12-18T13:28:05;0.20;99.90
10848;DHT22;5477;48.806;9.154;2022-12-18T13:30:47;0.20;99.90
10848;DHT22;5477;48.806;9.154;2022-12-18T13:33:47;0.20;99.90
10848;DHT22;5477;48.806;9.154;2022-12-18T13:36:35;0.20;99.90
10848;DHT22;5477;48.806;9.154;2022-12-18T13:39:22;0.20;99.90
10848;DHT22;5477;48.806;9.154;2022-12-18T13:45:43;0.20;99.90
10848;DHT22;5477;48.806;9.154;2022-12-18T13:48:22;0.30;99.90
10848;DHT22;5477;48.806;9.154;2022-12-18T13:50:59;0.20;99.90
10848;DHT22;5477;48.806;9.154;2022-12-18T13:53:30;0.30;99.90
10848;DHT22;5477;48.806;9.154;2022-12-18T13:55:59;0.30;99.90
10848;DHT22;5477;48.806;9.154;2022-12-18T13:58:27;0.30;99.90
10848;DHT22;5477;48.806;9.154;2022-12-18T14:00:57;0.40;99.90
10848;DHT22;5477;48.806;9.154;2022-12-18T14:03:28;0.30;99.90
10848;DHT22;5477;48.806;9.154;2022-12-18T14:06:01;0.20;99.90
10848;DHT22;5477;48.806;9.154;2022-12-18T14:08:38;0.30;99.90
10848;DHT22;5477;48.806;9.154;2022-12-18T14:11:20;0.20;99.90
10848;DHT22;5477;48.806;9.154;2022-12-18T14:13:52;0.10;99.90
10848;DHT22;5477;48.806;9.154;2022-12-18T14:16:22;0.10;99.90
10848;DHT22;5477;48.806;9.154;2022-12-18T14:18:53;0.00;99.90
10848;DHT22;5477;48.806;9.154;2022-12-18T14:21:34;0.00;99.90
10848;DHT22;5477;48.806;9.154;2022-12-18T14:24:12;0.00;99.90
10848;DHT22;5477;48.806;9.154;2022-12-18T14:26:46;0.00;99.90
10848;DHT22;5477;48.806;9.154;2022-12-18T14:29:24;0.00;99.90
10848;DHT22;5477;48.806;9.154;2022-12-18T14:32:09;-0.10;99.90
10848;DHT22;5477;48.806;9.154;2022-12-18T14:34:44;-0.10;99.90
10848;DHT22;5477;48.806;9.154;2022-12-18T14:37:14;-0.10;99.90
10848;DHT22;5477;48.806;9.154;2022-12-18T14:39:53;-0.10;99.90
10848;DHT22;5477;48.806;9.154;2022-12-18T14:42:21;-0.10;99.90
10848;DHT22;5477;48.806;9.154;2022-12-18T14:44:49;-0.20;99.90
10848;DHT22;5477;48.806;9.154;2022-12-18T14:47:38;-0.30;99.90
10848;DHT22;5477;48.806;9.154;2022-12-18T14:50:12;-0.30;99.90
10848;DHT22;5477;48.806;9.154;2022-12-18T14:52:41;-0.30;99.90
10848;DHT22;5477;48.806;9.154;2022-12-18T14:55:15;-0.30;99.90
10848;DHT22;5477;48.806;9.154;2022-12-18T14:57:43;-0.40;99.90
10848;DHT22;5477;48.806;9.154;2022-12-18T15:00:16;-0.30;99.90
10848;DHT22;5477;48.806;9.154;2022-12-18T15:02:48;-0.30;99.90
10848;DHT22;5477;48.806;9.154;2022-12-18T15:05:20;-0.40;99.90
10848;DHT22;5477;48.806;9.154;2022-12-18T15:07:50;-0.50;99.90
10848;DHT22;5477;48.806;9.154;2022-12-18T15:10:20;-0.60;99.90
10848;DHT22;5477;48.806;9.154;2022-12-18T15:12:49;-0.60;99.90
10848;DHT22;5477;48.806;9.154;2022-12-18T15:15:46;-0.60;99.90
10848;DHT22;5477;48.806;9.154;2022-12-18T15:18:18;-0.70;99.90
10848;DHT22;5477;48.806;9.154;2022-12-18T15:20:49;-0.80;99.90
10848;DHT22;5477;48.806;9.154;2022-12-18T15:23:20;-0.80;99.90
10848;DHT22;5477;48.806;9.154;2022-12-18T15:25:58;-1.00;99.90
10848;DHT22;5477;48.806;9.154;2022-12-18T15:28:29;-1.10;99.90
10848;DHT22;5477;48.806;9.154;2022-12-18T15:31:04;-1.10;99.90
10848;DHT22;5477;48.806;9.154;2022-12-18T15:33:35;-1.20;99.90
10848;DHT22;5477;48.806;9.154;2022-12-18T15:36:08;-1.20;99.90
10848;DHT22;5477;48.806;9.154;2022-12-18T15:38:36;-1.20;99.90
10848;DHT22;5477;48.806;9.154;2022-12-18T15:41:11;-1.30;99.90
10848;DHT22;5477;48.806;9.154;2022-12-18T15:43:45;-1.30;99.90
10848;DHT22;5477;48.806;9.154;2022-12-18T15:46:14;-1.40;99.90
10848;DHT22;5477;48.806;9.154;2022-12-18T15:48:46;-1.40;99.90
10848;DHT22;5477;48.806;9.154;2022-12-18T15:51:17;-1.40;99.90
10848;DHT22;5477;48.806;9.154;2022-12-18T15:53:47;-1.40;99.90
10848;DHT22;5477;48.806;9.154;2022-12-18T15:56:16;-1.40;99.90
10848;DHT22;5477;48.806;9.154;2022-12-18T15:59:04;-1.40;99.90
10848;DHT22;5477;48.806;9.154;2022-12-18T16:01:36;-1.60;99.90
10848;DHT22;5477;48.806;9.154;2022-12-18T16:04:11;-1.60;99.90
10848;DHT22;5477;48.806;9.154;2022-12-18T16:06:39;-1.60;99.90
10848;DHT22;5477;48.806;9.154;2022-12-18T16:09:27;-1.70;99.90
10848;DHT22;5477;48.806;9.154;2022-12-18T16:11:55;-1.70;99.90
10848;DHT22;5477;48.806;9.154;2022-12-18T16:14:28;-1.70;99.90
10848;DHT22;5477;48.806;9.154;2022-12-18T16:16:58;-1.70;99.90
10848;DHT22;5477;48.806;9.154;2022-12-18T16:19:28;-1.70;99.90
10848;DHT22;5477;48.806;9.154;2022-12-18T16:21:57;-1.70;99.90
10848;DHT22;5477;48.806;9.154;2022-12-18T16:24:27;-1.70;99.90
10848;DHT22;5477;48.806;9.154;2022-12-18T16:26:57;-1.70;99.90
10848;DHT22;5477;48.806;9.154;2022-12-18T16:29:27;-1.70;99.90
10848;DHT22;5477;48.806;9.154;2022-12-18T16:31:57;-1.70;99.90